Darstellungsparameter: Aktuell verwendete Einstellungen:
Skalierung der Graphiken ... ?
xyx+y,   Skalierungsfaktor:      Skalierung: Modus: x, Faktor: 1
Darstellungszeitraum ... ?
Vom - - bis: - -   Zeitraum: 25.05.2022 - 25.05.2022
Min/Max/Avg-Anzeige ... ?
Zeige MMA aktuell
Zeige MMA Monat
Zeige MMA alles
Zeige --A aktuell
Zeige --A Monat
Zeige --A alles
Keine MMA-Anzeige
MMA:
Keine MMA-Graphiken
MMA-Basis: 25.05.2022 - 25.05.2022
Quicknavigation für Darstellung... ?
Tage:      1T, 2T, 3T, 5T -1T -2T -3T -5T +1T +2T +3T +5T
Wochen: 1W, 2W, 3W -1W -2W -3W +1W +2W +3W
Monate: 1M, 3M, 6M -1M -3M -6M +1M +3M +6M
Jahre:    1J, 3J, 5J, 10J -1J -3J -5J -10J +1J +3J +5J +10J
Nutze für die Darstellung ... ?
Originaldaten oder Mittelwerte auf ...
Stundenbasis Tagesbasis Wochenbasis
Monatsbasis Jahresbasis      Datenbasis: Original-Daten
Darstellen als:
Statistik (Auto) Statistik J:M      Darstellung:

Der gewünschte Datumsbereich war nicht gültig/verfügbar und wurde korrigiert....
Das angegebene Enddatum (16.09.2030 23:59:59) liegt in der Zukunft.
Das angegebene Startdatum (17.03.2030 00:00:00) liegt in der Zukunft.


Zur Graphik,    zurück zur Übersicht aller Sensoren.
 
Tabellarische Datenbersicht: ?
 
Sensor: Nr:Datum:Temp:Abs-Feuchte:Windchill:Wind:
Aussen-T/F 1 25-05-2022 02:00:00 10.9 C 9.25 g/m*3 10.9 C 0 km/h
2 25-05-2022 02:05:00 10.9 C 9.25 g/m*3 10.9 C 0 km/h
3 25-05-2022 02:10:00 10.9 C 9.25 g/m*3 10.9 C 0 km/h
4 25-05-2022 02:15:00 10.8 C 9.19 g/m*3 10.8 C 0 km/h
5 25-05-2022 02:20:00 10.7 C 9.13 g/m*3 10.7 C 0 km/h
6 25-05-2022 02:25:00 10.6 C 9.08 g/m*3 10.6 C 0 km/h
7 25-05-2022 02:30:00 10.6 C 9.08 g/m*3 10.6 C 0 km/h
8 25-05-2022 02:35:00 10.5 C 9.02 g/m*3 10.5 C 0 km/h
9 25-05-2022 02:40:00 10.4 C 8.96 g/m*3 10.4 C 0 km/h
10 25-05-2022 02:45:00 10.4 C 8.96 g/m*3 10.4 C 0 km/h
11 25-05-2022 02:50:00 10.3 C 8.91 g/m*3 10.3 C 0 km/h
12 25-05-2022 02:55:00 10.2 C 8.85 g/m*3 10.2 C 1.6 km/h
13 25-05-2022 03:00:00 10.2 C 8.85 g/m*3 10.2 C 3.2 km/h
14 25-05-2022 03:05:00 10.1 C 8.79 g/m*3 10.1 C 1.6 km/h
15 25-05-2022 03:10:00 10 C 8.74 g/m*3 10 C 1.6 km/h
16 25-05-2022 03:15:00 9.9 C 8.68 g/m*3 9.9 C 0 km/h
17 25-05-2022 03:20:00 9.8 C 8.63 g/m*3 9.8 C 1.6 km/h
18 25-05-2022 03:25:00 9.8 C 8.63 g/m*3 9.8 C 4.8 km/h
19 25-05-2022 03:30:00 9.7 C 8.57 g/m*3 9.7 C 4.8 km/h
20 25-05-2022 03:35:00 9.7 C 8.57 g/m*3 9.7 C 0 km/h
21 25-05-2022 03:40:00 9.6 C 8.52 g/m*3 9.6 C 1.6 km/h
22 25-05-2022 03:45:00 9.5 C 8.47 g/m*3 9.5 C 1.6 km/h
23 25-05-2022 03:50:00 9.4 C 8.41 g/m*3 9.4 C 1.6 km/h
24 25-05-2022 03:55:00 9.3 C 8.36 g/m*3 9.3 C 0 km/h
25 25-05-2022 04:00:00 9.3 C 8.36 g/m*3 9.3 C 0 km/h
Sensor: Nr:Datum:Temp:Abs-Feuchte:Windchill:Wind:
Aussen-T/F 26 25-05-2022 04:05:00 9.2 C 8.3 g/m*3 9.2 C 0 km/h
27 25-05-2022 04:10:00 9.1 C 8.25 g/m*3 9.1 C 0 km/h
28 25-05-2022 04:15:00 9.1 C 8.34 g/m*3 9.1 C 3.2 km/h
29 25-05-2022 04:20:00 9.1 C 8.34 g/m*3 9.1 C 1.6 km/h
30 25-05-2022 04:25:00 9.1 C 8.34 g/m*3 9.1 C 0 km/h
31 25-05-2022 04:30:00 8.9 C 8.15 g/m*3 8.9 C 0 km/h
32 25-05-2022 04:35:00 8.9 C 8.15 g/m*3 8.9 C 0 km/h
33 25-05-2022 04:40:00 8.8 C 8.18 g/m*3 8.8 C 1.6 km/h
34 25-05-2022 04:45:00 8.8 C 8.18 g/m*3 8.8 C 0 km/h
35 25-05-2022 04:50:00 8.7 C 8.04 g/m*3 8.7 C 0 km/h
36 25-05-2022 04:55:00 8.7 C 8.13 g/m*3 8.7 C 0 km/h
37 25-05-2022 05:00:00 8.6 C 8.08 g/m*3 8.6 C 0 km/h
38 25-05-2022 05:05:00 8.6 C 8.08 g/m*3 8.6 C 0 km/h
39 25-05-2022 05:10:00 8.5 C 8.03 g/m*3 8.5 C 0 km/h
40 25-05-2022 05:15:00 8.5 C 8.03 g/m*3 8.5 C 0 km/h
41 25-05-2022 05:20:00 8.4 C 7.97 g/m*3 8.4 C 0 km/h
42 25-05-2022 05:25:00 8.4 C 7.97 g/m*3 8.4 C 0 km/h
43 25-05-2022 05:30:00 8.4 C 7.97 g/m*3 8.4 C 0 km/h
44 25-05-2022 05:35:00 8.4 C 7.97 g/m*3 8.4 C 1.6 km/h
45 25-05-2022 05:40:00 8.5 C 8.03 g/m*3 8.5 C 4.8 km/h
46 25-05-2022 05:45:00 8.6 C 8.08 g/m*3 8.6 C 1.6 km/h
47 25-05-2022 05:50:00 8.6 C 8.16 g/m*3 7.75 C 6.4 km/h
48 25-05-2022 05:55:00 8.7 C 8.22 g/m*3 7.87 C 6.4 km/h
49 25-05-2022 06:00:00 8.7 C 8.22 g/m*3 8.7 C 3.2 km/h
50 25-05-2022 06:05:00 8.8 C 8.27 g/m*3 7.58 C 8.1 km/h
Sensor: Nr:Datum:Temp:Abs-Feuchte:Windchill:Wind:
Aussen-T/F 51 25-05-2022 06:10:00 8.8 C 8.27 g/m*3 8.8 C 4.8 km/h
52 25-05-2022 06:15:00 8.9 C 8.32 g/m*3 8.9 C 3.2 km/h
53 25-05-2022 06:20:00 8.9 C 8.32 g/m*3 8.9 C 4.8 km/h
54 25-05-2022 06:25:00 9 C 8.38 g/m*3 7.81 C 8.1 km/h
55 25-05-2022 06:30:00 9 C 8.38 g/m*3 9 C 1.6 km/h
56 25-05-2022 06:35:00 9 C 8.38 g/m*3 9 C 0 km/h
57 25-05-2022 06:40:00 8.9 C 8.32 g/m*3 8.9 C 1.6 km/h
58 25-05-2022 06:45:00 8.9 C 8.32 g/m*3 8.9 C 4.8 km/h
59 25-05-2022 06:50:00 9 C 8.38 g/m*3 9 C 3.2 km/h
60 25-05-2022 06:55:00 9.1 C 8.43 g/m*3 9.1 C 1.6 km/h
61 25-05-2022 07:00:00 9.1 C 8.43 g/m*3 9.1 C 0 km/h
62 25-05-2022 07:05:00 9.1 C 8.43 g/m*3 9.1 C 1.6 km/h
63 25-05-2022 07:10:00 9.1 C 8.43 g/m*3 9.1 C 0 km/h
64 25-05-2022 07:15:00 9.1 C 8.43 g/m*3 9.1 C 1.6 km/h
65 25-05-2022 07:20:00 9.1 C 8.43 g/m*3 9.1 C 3.2 km/h
66 25-05-2022 07:25:00 9.2 C 8.48 g/m*3 9.2 C 4.8 km/h
67 25-05-2022 07:30:00 9.3 C 8.54 g/m*3 8.56 C 6.4 km/h
68 25-05-2022 07:35:00 9.6 C 8.79 g/m*3 8.21 C 9.7 km/h
69 25-05-2022 07:40:00 9.7 C 8.85 g/m*3 9.02 C 6.4 km/h
70 25-05-2022 07:45:00 9.8 C 8.91 g/m*3 9.14 C 6.4 km/h
71 25-05-2022 07:50:00 9.9 C 8.96 g/m*3 8.56 C 9.7 km/h
72 25-05-2022 07:55:00 10.2 C 9.04 g/m*3 8.92 C 9.7 km/h
73 25-05-2022 08:00:00 10.3 C 9.1 g/m*3 9.34 C 8.1 km/h
74 25-05-2022 08:05:00 10.3 C 9.1 g/m*3 9.34 C 8.1 km/h
75 25-05-2022 08:10:00 10.5 C 9.21 g/m*3 9.57 C 8.1 km/h
Sensor: Nr:Datum:Temp:Abs-Feuchte:Windchill:Wind:
Aussen-T/F 76 25-05-2022 08:15:00 10.6 C 9.17 g/m*3 10.06 C 6.4 km/h
77 25-05-2022 08:20:00 10.8 C 9.29 g/m*3 9.93 C 8.1 km/h
78 25-05-2022 08:25:00 10.9 C 9.35 g/m*3 10.9 C 4.8 km/h
79 25-05-2022 08:30:00 11.1 C 9.37 g/m*3 11.1 C 8.1 km/h
80 25-05-2022 08:35:00 11.2 C 9.43 g/m*3 11.2 C 6.4 km/h
81 25-05-2022 08:40:00 11.3 C 9.38 g/m*3 11.3 C 8.1 km/h
82 25-05-2022 08:45:00 11.6 C 9.46 g/m*3 11.6 C 9.7 km/h
83 25-05-2022 08:50:00 11.8 C 9.47 g/m*3 11.8 C 11.3 km/h
84 25-05-2022 08:55:00 11.9 C 9.43 g/m*3 11.9 C 6.4 km/h
85 25-05-2022 09:00:00 12.1 C 9.54 g/m*3 12.1 C 6.4 km/h
86 25-05-2022 09:05:00 12.3 C 9.56 g/m*3 12.3 C 6.4 km/h
87 25-05-2022 09:10:00 12.5 C 9.57 g/m*3 12.5 C 8.1 km/h
88 25-05-2022 09:15:00 12.9 C 9.69 g/m*3 12.9 C 6.4 km/h
89 25-05-2022 09:20:00 13.1 C 9.7 g/m*3 13.1 C 6.4 km/h
90 25-05-2022 09:25:00 13.3 C 9.7 g/m*3 13.3 C 8.1 km/h
91 25-05-2022 09:30:00 13.6 C 9.77 g/m*3 13.6 C 4.8 km/h
92 25-05-2022 09:35:00 13.7 C 9.71 g/m*3 13.7 C 8.1 km/h
93 25-05-2022 09:40:00 13.9 C 9.83 g/m*3 13.9 C 6.4 km/h
94 25-05-2022 09:45:00 14 C 9.77 g/m*3 14 C 6.4 km/h
95 25-05-2022 09:50:00 14.2 C 9.77 g/m*3 14.2 C 6.4 km/h
96 25-05-2022 09:55:00 14.3 C 9.83 g/m*3 14.3 C 6.4 km/h
97 25-05-2022 10:00:00 14.5 C 9.83 g/m*3 14.5 C 6.4 km/h
98 25-05-2022 10:05:00 14.7 C 9.82 g/m*3 14.7 C 6.4 km/h
99 25-05-2022 10:10:00 14.8 C 9.63 g/m*3 14.8 C 8.1 km/h
100 25-05-2022 10:15:00 14.9 C 9.69 g/m*3 14.9 C 4.8 km/h
Sensor: Nr:Datum:Temp:Abs-Feuchte:Windchill:Wind:
Aussen-T/F 101 25-05-2022 10:20:00 15.1 C 9.55 g/m*3 15.1 C 8.1 km/h
102 25-05-2022 10:25:00 15.4 C 9.46 g/m*3 15.4 C 8.1 km/h
103 25-05-2022 10:30:00 15.6 C 9.44 g/m*3 15.6 C 8.1 km/h
104 25-05-2022 10:35:00 15.9 C 9.62 g/m*3 15.9 C 6.4 km/h
105 25-05-2022 10:40:00 16.1 C 9.6 g/m*3 16.1 C 6.4 km/h
106 25-05-2022 10:45:00 16.3 C 9.43 g/m*3 16.3 C 9.7 km/h
107 25-05-2022 10:50:00 16.4 C 9.49 g/m*3 16.4 C 8.1 km/h
108 25-05-2022 10:55:00 16.7 C 9.38 g/m*3 16.7 C 9.7 km/h
109 25-05-2022 11:00:00 17 C 9.69 g/m*3 17 C 8.1 km/h
110 25-05-2022 11:05:00 17.2 C 9.52 g/m*3 17.2 C 12.9 km/h
111 25-05-2022 11:10:00 17.2 C 9.08 g/m*3 17.2 C 11.3 km/h
112 25-05-2022 11:15:00 17.1 C 9.17 g/m*3 17.1 C 9.7 km/h
113 25-05-2022 11:20:00 17.1 C 9.61 g/m*3 17.1 C 8.1 km/h
114 25-05-2022 11:25:00 17.4 C 9.63 g/m*3 17.4 C 12.9 km/h
115 25-05-2022 11:30:00 17.6 C 9.3 g/m*3 17.6 C 16.1 km/h
116 25-05-2022 11:35:00 17.7 C 9.51 g/m*3 17.7 C 8.1 km/h
117 25-05-2022 11:40:00 17.8 C 9.26 g/m*3 17.8 C 12.9 km/h
118 25-05-2022 11:45:00 17.9 C 9.31 g/m*3 17.9 C 9.7 km/h
119 25-05-2022 11:50:00 18.2 C 9.33 g/m*3 18.2 C 14.5 km/h
120 25-05-2022 11:55:00 18.4 C 8.65 g/m*3 18.4 C 11.3 km/h
121 25-05-2022 12:00:00 18.7 C 8.97 g/m*3 18.7 C 9.7 km/h
122 25-05-2022 12:05:00 18.8 C 8.86 g/m*3 18.8 C 11.3 km/h
123 25-05-2022 12:10:00 18.9 C 8.59 g/m*3 18.9 C 14.5 km/h
124 25-05-2022 12:15:00 18.9 C 8.75 g/m*3 18.9 C 14.5 km/h
125 25-05-2022 12:20:00 19.1 C 8.69 g/m*3 19.1 C 11.3 km/h
Sensor: Nr:Datum:Temp:Abs-Feuchte:Windchill:Wind:
Aussen-T/F 126 25-05-2022 12:25:00 19.3 C 8.63 g/m*3 19.3 C 11.3 km/h
127 25-05-2022 12:30:00 19.2 C 8.41 g/m*3 19.2 C 14.5 km/h
128 25-05-2022 12:35:00 19.4 C 8.68 g/m*3 19.4 C 11.3 km/h
129 25-05-2022 12:40:00 19.6 C 8.95 g/m*3 19.6 C 14.5 km/h
130 25-05-2022 12:45:00 19.8 C 8.54 g/m*3 19.8 C 11.3 km/h
131 25-05-2022 12:50:00 20.1 C 8.69 g/m*3 20.1 C 11.3 km/h

Legende:
   Min
   Max


Maximal/Minimal-Werte vom 25.05.2022 - 25.05.2022

Sensor Min Max Avg
Temp
(Aussen-T/F)
8.4 °C
25-05-2022  05:20:00
20.1 °C
25-05-2022  12:50:00
12.03 °C
Abs-Feuchte
(Aussen-T/F)
7.97 g/m*3
25-05-2022  05:20:00
9.83 g/m*3
25-05-2022  09:40:00
8.8 g/m*3
Windchill
(Aussen-T/F)
7.58 C
25-05-2022  06:05:00
20.1 C
25-05-2022  12:50:00
11.82 C

Die Daten stammen von einer Davis Vantage Pro 2 Wetter-Station und werden unter Linux mit der Software wview2wettercgi und aufbereitet. Alle Angaben erfolgen ohne Gewähr für ihre Vollständigkeit oder Richtigkeit.
Kontakt: Rainer Krienke krienke@uni-koblenz.de . Meine Webseiten an der Uni Koblenz oder privat.
Version: $Revision: 0.78 $